| Date | Time | Temp. (oF) | Dew Point (oF) | Rel. Hum. (%) | Press. (in.) | Wind Dir. | Wind Speed (mph) | Hourly Rainfall (in.) |
|
|---|---|---|---|---|---|---|---|---|---|
| 1 | 07/22 | 00:00 | 76 | 71 | 87 | 29.85 | SSW | 0 | 0.00 |
| 2 | 07/21 | 23:00 | 76 | 71 | 87 | 29.84 | SW | 0 | 0.00 |
| 3 | 07/21 | 22:00 | 79 | 71 | 77 | 29.84 | W | 0 | 0.00 |
| 4 | 07/21 | 21:00 | 83 | 69 | 63 | 29.80 | W | 0 | 0.00 |
| 5 | 07/21 | 20:00 | 89 | 68 | 52 | 29.78 | W | 0 | 0.00 |
| 6 | 07/21 | 19:00 | 90 | 65 | 45 | 29.79 | NW | 2 | 0.00 |
| 7 | 07/21 | 18:00 | 91 | 65 | 43 | 29.79 | NNW | 2 | 0.00 |
| 8 | 07/21 | 17:00 | 90 | 66 | 47 | 29.80 | W | 5 | 0.00 |
| 9 | 07/21 | 16:00 | 90 | 67 | 48 | 29.82 | W | 3 | 0.00 |
| 10 | 07/21 | 15:00 | 89 | 70 | 54 | 29.84 | NNW | 3 | 0.00 |
| 11 | 07/21 | 14:00 | 88 | 69 | 54 | 29.85 | WNW | 11 | 0.00 |
| 12 | 07/21 | 13:00 | 87 | 69 | 57 | 29.87 | N | 5 | 0.00 |
| 13 | 07/21 | 12:00 | 83 | 69 | 65 | 29.88 | W | 5 | 0.00 |
| 14 | 07/21 | 11:00 | 82 | 71 | 70 | 29.87 | NW | 2 | 0.00 |
| 15 | 07/21 | 10:00 | 79 | 69 | 73 | 29.87 | NNW | 6 | 0.00 |
| 16 | 07/21 | 09:00 | 77 | 70 | 80 | 29.87 | NNW | 3 | 0.00 |
| 17 | 07/21 | 08:00 | 74 | 70 | 90 | 29.86 | NW | 2 | 0.00 |
| 18 | 07/21 | 07:00 | 71 | 70 | 98 | 29.86 | WNW | 2 | 0.00 |
| 19 | 07/21 | 06:00 | 70 | 69 | 97 | 29.85 | WSW | 0 | 0.00 |
| 20 | 07/21 | 05:00 | 70 | 69 | 98 | 29.84 | WSW | 0 | 0.00 |
| 21 | 07/21 | 04:00 | 71 | 69 | 96 | 29.84 | WNW | 1 | 0.00 |
| 22 | 07/21 | 03:00 | 71 | 70 | 97 | 29.85 | SW | 1 | 0.00 |
| 23 | 07/21 | 02:00 | 72 | 71 | 98 | 29.85 | SW | 3 | 0.00 |
| 24 | 07/21 | 01:00 | 73 | 71 | 96 | 29.85 | SW | 0 | 0.00 |